Time;durP1;ratioP1;P1;durP2;ratioP2;P2;SDS_P1;SDS_P2;PMS_P1;PMS_P2;Temp;Humidity;BMP_temperature;BMP_pressure;BME280_temperature;BME280_humidity;BME280_pressure;Samples;Min_cycle;Max_cycle;Signal;HPM_P1;HPM_P2
2020/12/12 00:01:42;;;;;;;26.30;11.10;;;;;;;9.73;100.00;99105.28;1865464;75;936502;-76
2020/12/12 00:04:12;;;;;;;27.40;12.07;;;;;;;9.72;100.00;99110.56;1833288;76;936742;-76
2020/12/12 00:06:42;;;;;;;21.53;11.30;;;;;;;9.76;100.00;99107.39;1865920;75;936729;-76
2020/12/12 00:09:12;;;;;;;23.03;10.53;;;;;;;9.75;100.00;99111.33;1833135;76;945260;-76
2020/12/12 00:11:42;;;;;;;23.63;11.87;;;;;;;9.73;100.00;99105.28;1865871;75;936503;-76
2020/12/12 00:14:12;;;;;;;21.50;11.70;;;;;;;9.75;100.00;99108.56;1833311;76;936619;-76
2020/12/12 00:16:42;;;;;;;25.13;11.27;;;;;;;9.74;100.00;99118.01;1866452;75;936873;-77
2020/12/12 00:19:12;;;;;;;23.67;12.30;;;;;;;9.76;100.00;99115.71;1832649;76;936604;-76
2020/12/12 00:21:42;;;;;;;24.67;11.90;;;;;;;9.71;100.00;99117.84;1865943;76;936751;-75
2020/12/12 00:24:12;;;;;;;24.33;13.30;;;;;;;9.71;100.00;99121.43;1833170;76;936667;-76
2020/12/12 00:26:42;;;;;;;26.87;13.67;;;;;;;9.71;100.00;99123.38;1866355;75;936709;-76
2020/12/12 00:29:14;;;;;;;26.80;13.15;;;;;;;9.69;100.00;99123.69;1833630;76;936611;-76
2020/12/12 00:31:44;;;;;;;27.30;12.80;;;;;;;9.69;100.00;99125.64;1865784;75;936645;-76
2020/12/12 00:34:14;;;;;;;32.08;13.78;;;;;;;9.71;100.00;99128.92;1833732;76;936564;-76
2020/12/12 00:36:45;;;;;;;24.93;13.93;;;;;;;9.69;100.00;99122.30;1865533;75;936804;-76
2020/12/12 00:39:15;;;;;;;26.55;14.03;;;;;;;9.66;100.00;99132.66;1853402;75;935653;-76
2020/12/12 00:41:45;;;;;;;24.00;14.90;;;;;;;9.58;100.00;99125.92;1845334;76;936670;-76
2020/12/12 00:44:15;;;;;;;23.30;12.50;;;;;;;9.62;100.00;99137.78;1853321;75;936606;-76
2020/12/12 00:46:45;;;;;;;27.27;14.73;;;;;;;9.61;100.00;99139.73;1845296;77;936704;-77
2020/12/12 00:49:15;;;;;;;29.83;13.20;;;;;;;9.67;100.00;99140.41;1853879;76;936498;-77
2020/12/12 00:51:46;;;;;;;23.47;13.77;;;;;;;9.64;100.00;99147.39;1845400;76;936594;-76
2020/12/12 00:54:16;;;;;;;26.45;14.28;;;;;;;9.63;100.00;99147.14;1854013;75;936643;-76
2020/12/12 00:56:46;;;;;;;28.50;15.13;;;;;;;9.58;100.00;99148.70;1845336;76;936561;-76
2020/12/12 00:59:19;;;;;;;27.25;14.50;;;;;;;9.54;100.00;99142.95;1853361;75;935547;-76
2020/12/12 01:01:48;;;;;;;31.10;15.23;;;;;;;9.49;100.00;99142.30;1865997;76;936656;-76
2020/12/12 01:04:18;;;;;;;31.65;15.13;;;;;;;9.51;100.00;99155.25;1831288;76;936692;-76
2020/12/12 01:06:49;;;;;;;29.57;15.33;;;;;;;9.50;100.00;99154.99;1865896;76;935449;-76
2020/12/12 01:09:19;;;;;;;29.40;15.55;;;;;;;9.55;100.00;99158.45;1832967;76;936634;-76
2020/12/12 01:11:51;;;;;;;31.33;15.67;;;;;;;9.55;100.00;99165.94;1844360;76;934789;-76
2020/12/12 01:14:22;;;;;;;32.15;16.17;;;;;;;9.57;100.00;99158.14;1853418;75;936538;-76
2020/12/12 01:16:52;;;;;;;31.50;16.00;;;;;;;9.59;100.00;99158.62;1844636;76;934770;-76
2020/12/12 01:19:25;;;;;;;32.65;17.17;;;;;;;9.59;100.00;99167.76;1853644;75;936544;-76
2020/12/12 01:21:58;;;;;;;34.27;16.77;;;;;;;9.60;100.00;99168.58;1845321;76;934629;-76
2020/12/12 01:24:28;;;;;;;34.30;17.20;;;;;;;9.62;100.00;99169.09;1866421;75;936545;-76
2020/12/12 01:27:00;;;;;;;38.33;18.20;;;;;;;9.62;100.00;99171.86;1845692;76;934568;-77
2020/12/12 01:29:31;;;;;;;32.60;16.47;;;;;;;9.65;100.00;99170.39;1865893;76;936500;-77
2020/12/12 01:32:01;;;;;;;34.73;17.37;;;;;;;9.65;100.00;99178.14;1843400;76;934736;-77
2020/12/12 01:34:30;;;;;;;35.90;17.53;;;;;;;9.62;100.00;99185.72;1865793;76;936621;-77
2020/12/12 01:37:00;;;;;;;35.10;19.10;;;;;;;9.63;100.00;99183.17;1845328;77;934730;-76
2020/12/12 01:39:30;;;;;;;37.20;18.27;;;;;;;9.65;100.00;99191.19;1865857;75;936627;-76
2020/12/12 01:42:00;;;;;;;32.33;16.93;;;;;;;9.56;100.00;99191.97;1845201;77;934654;-76
2020/12/12 01:44:30;;;;;;;32.07;17.23;;;;;;;9.60;100.00;99200.45;1865771;76;935739;-76
2020/12/12 01:47:01;;;;;;;36.03;16.73;;;;;;;9.59;100.00;99205.17;1845505;76;934645;-76
2020/12/12 01:49:31;;;;;;;31.80;15.97;;;;;;;9.54;100.00;99210.06;1865918;75;936541;-77
2020/12/12 01:52:01;;;;;;;33.90;15.70;;;;;;;9.54;100.00;99216.39;1866149;76;934751;-77
2020/12/12 01:54:31;;;;;;;31.33;15.80;;;;;;;9.54;100.00;99215.02;1845440;76;936564;-77
2020/12/12 01:57:03;;;;;;;32.33;15.67;;;;;;;9.57;100.00;99224.66;1865770;75;934684;-76
2020/12/12 01:59:33;;;;;;;27.07;14.50;;;;;;;9.56;100.00;99226.61;1845024;76;936627;-77
2020/12/12 02:02:06;;;;;;;30.63;14.93;;;;;;;9.55;100.00;99230.52;1859854;76;936802;-77
2020/12/12 02:04:38;;;;;;;30.63;14.53;;;;;;;9.53;100.00;99223.66;1854527;76;936591;-77
2020/12/12 02:07:08;;;;;;;39.67;15.43;;;;;;;9.59;100.00;99239.00;1853858;75;936542;-76
2020/12/12 02:09:38;;;;;;;33.33;15.90;;;;;;;9.59;100.00;99238.44;1844276;76;936886;-76
2020/12/12 02:12:08;;;;;;;31.90;14.07;;;;;;;9.57;100.00;99240.73;1853392;75;946306;-77
2020/12/12 02:14:38;;;;;;;29.93;14.67;;;;;;;9.53;100.00;99248.04;1845052;76;936706;-77
2020/12/12 02:17:09;;;;;;;30.35;14.40;;;;;;;9.53;100.00;99254.97;1853177;75;936486;-77
2020/12/12 02:19:39;;;;;;;32.23;14.90;;;;;;;9.52;100.00;99253.33;1844848;76;936658;-76
2020/12/12 02:22:10;;;;;;;32.70;15.03;;;;;;;9.55;100.00;99265.72;1853304;76;941556;-76
2020/12/12 02:24:40;;;;;;;32.80;15.37;;;;;;;9.59;100.00;99266.72;1845472;76;936596;-76
2020/12/12 02:27:10;;;;;;;34.63;14.87;;;;;;;9.56;100.00;99269.58;1853302;75;935545;-77
2020/12/12 02:29:44;;;;;;;36.77;16.27;;;;;;;9.58;100.00;99270.05;1845361;77;936566;-77
2020/12/12 02:32:12;;;;;;;30.25;15.00;;;;;;;9.56;100.00;99282.61;1853549;75;936529;-77
2020/12/12 02:34:43;;;;;;;38.93;15.57;;;;;;;9.62;100.00;99278.58;1844361;77;936738;-76
2020/12/12 02:37:13;;;;;;;30.12;14.40;;;;;;;9.62;100.00;99278.58;1853173;75;936636;-76
2020/12/12 02:39:43;;;;;;;36.73;16.07;;;;;;;9.66;100.00;99279.58;1865912;76;936541;-76
2020/12/12 02:42:13;;;;;;;40.27;17.07;;;;;;;9.69;100.00;99290.59;1833322;77;936611;-76
2020/12/12 02:44:43;;;;;;;43.70;16.07;;;;;;;9.64;100.00;99290.72;1865932;75;936714;-76
2020/12/12 02:47:13;;;;;;;35.63;17.15;;;;;;;9.71;100.00;99296.66;1853905;76;936664;-77
2020/12/12 02:49:42;;;;;;;38.90;17.23;;;;;;;9.70;100.00;99293.63;1845439;76;936769;-77
2020/12/12 02:52:13;;;;;;;43.00;18.17;;;;;;;9.70;100.00;99293.63;1853744;75;936671;-76
2020/12/12 02:54:43;;;;;;;40.33;17.87;;;;;;;9.71;100.00;99299.42;1865971;75;936643;-76
2020/12/12 02:57:14;;;;;;;39.53;16.73;;;;;;;9.72;100.00;99306.58;1833298;76;935544;-76
2020/12/12 02:59:44;;;;;;;37.60;16.73;;;;;;;9.75;100.00;99308.18;1866102;76;936566;-77
2020/12/12 03:02:14;;;;;;;34.87;16.77;;;;;;;9.74;100.00;99312.64;1832773;76;936689;-77
2020/12/12 03:04:44;;;;;;;39.97;16.77;;;;;;;9.72;100.00;99317.67;1866175;75;936502;-77
2020/12/12 03:07:14;;;;;;;31.60;15.38;;;;;;;9.59;100.00;99316.05;1833269;77;936629;-77
2020/12/12 03:09:44;;;;;;;34.50;15.83;;;;;;;9.55;100.00;99314.23;1866316;75;936550;-77
2020/12/12 03:12:13;;;;;;;33.05;15.48;;;;;;;9.50;100.00;99323.48;1853795;76;936716;-77
2020/12/12 03:14:43;;;;;;;34.37;14.90;;;;;;;9.51;100.00;99328.47;1845134;76;936581;-77
2020/12/12 03:17:13;;;;;;;37.03;16.02;;;;;;;9.48;100.00;99321.61;1852837;76;936567;-77
2020/12/12 03:19:43;;;;;;;41.00;16.53;;;;;;;9.50;100.00;99331.80;1845425;77;936571;-77
2020/12/12 03:22:13;;;;;;;39.13;17.62;;;;;;;9.52;100.00;99334.27;1853449;76;936805;-77
2020/12/12 03:24:43;;;;;;;38.63;16.95;;;;;;;9.50;100.00;99340.11;1866785;75;936519;-77
2020/12/12 03:27:12;;;;;;;37.77;16.50;;;;;;;9.52;100.00;99340.63;1833396;76;936559;-77
2020/12/12 03:29:42;;;;;;;40.83;17.97;;;;;;;9.51;100.00;99349.25;1866039;75;936765;-77
2020/12/12 03:32:13;;;;;;;38.10;17.90;;;;;;;9.53;100.00;99353.36;1832372;76;936538;-77
2020/12/12 03:34:44;;;;;;;34.07;17.87;;;;;;;9.53;100.00;99351.98;1866078;76;936506;-77
2020/12/12 03:37:14;;;;;;;38.87;17.50;;;;;;;9.58;100.00;99355.19;1833255;76;936665;-77
2020/12/12 03:39:44;;;;;;;36.97;17.47;;;;;;;9.64;100.00;99362.80;1866049;76;936988;-77
2020/12/12 03:42:14;;;;;;;35.98;17.85;;;;;;;9.67;100.00;99366.34;1832930;77;936555;-77
2020/12/12 03:44:44;;;;;;;35.90;18.03;;;;;;;9.61;100.00;99368.41;1866132;75;936571;-77
2020/12/12 03:47:14;;;;;;;35.30;17.67;;;;;;;9.60;100.00;99375.09;1833404;77;936551;-77
2020/12/12 03:49:44;;;;;;;34.37;16.37;;;;;;;9.57;100.00;99368.79;1866261;75;936672;-77
2020/12/12 03:52:15;;;;;;;32.40;17.37;;;;;;;9.58;100.00;99373.21;1831614;76;936766;-77
2020/12/12 03:54:45;;;;;;;29.93;16.80;;;;;;;9.59;100.00;99372.05;1865677;75;936614;-76
2020/12/12 03:57:15;;;;;;;33.05;16.52;;;;;;;9.51;100.00;99377.79;1854411;75;936705;-77
2020/12/12 03:59:44;;;;;;;33.70;17.20;;;;;;;9.48;100.00;99384.53;1845208;77;936672;-77
2020/12/12 04:02:14;;;;;;;32.75;16.32;;;;;;;9.50;100.00;99388.61;1853823;76;936594;-77
2020/12/12 04:04:44;;;;;;;30.20;15.90;;;;;;;9.45;100.00;99389.33;1866248;76;936573;-77
2020/12/12 04:07:14;;;;;;;30.82;15.53;;;;;;;9.38;100.00;99393.08;1832304;76;936908;-77
2020/12/12 04:09:44;;;;;;;28.43;14.73;;;;;;;9.38;100.00;99395.84;1865859;75;935808;-77
2020/12/12 04:12:14;;;;;;;26.05;15.43;;;;;;;9.28;100.00;99396.10;1832564;77;936635;-77
2020/12/12 04:14:44;;;;;;;27.90;14.97;;;;;;;9.24;100.00;99405.58;1865893;76;936549;-77
2020/12/12 04:17:13;;;;;;;35.33;15.37;;;;;;;9.18;100.00;99408.78;1833371;76;936645;-77
2020/12/12 04:19:43;;;;;;;28.60;14.57;;;;;;;9.11;100.00;99412.78;1865760;75;936542;-77
2020/12/12 04:22:13;;;;;;;22.97;14.07;;;;;;;9.09;100.00;99421.98;1833437;77;935406;-77
2020/12/12 04:24:43;;;;;;;28.30;15.20;;;;;;;9.16;100.00;99420.76;1866000;75;936607;-77
2020/12/12 04:27:13;;;;;;;23.12;13.53;;;;;;;9.12;100.00;99423.30;1833383;76;936729;-77
2020/12/12 04:29:43;;;;;;;22.97;13.53;;;;;;;9.16;100.00;99428.47;1866141;75;936877;-77
2020/12/12 04:32:13;;;;;;;25.93;13.87;;;;;;;9.13;100.00;99430.48;1853549;75;936591;-77
2020/12/12 04:34:43;;;;;;;21.93;13.30;;;;;;;9.16;100.00;99436.78;1845488;76;936941;-76
2020/12/12 04:37:13;;;;;;;23.52;13.68;;;;;;;9.19;100.00;99438.13;1853783;75;936612;-76
2020/12/12 04:39:43;;;;;;;22.40;12.60;;;;;;;9.25;100.00;99434.10;1845447;77;936824;-77
2020/12/12 04:42:16;;;;;;;22.27;12.90;;;;;;;9.26;100.00;99439.91;1853951;75;936713;-77
2020/12/12 04:44:46;;;;;;;25.67;12.50;;;;;;;9.21;100.00;99435.30;1845746;76;936742;-77
2020/12/12 04:47:16;;;;;;;23.35;11.63;;;;;;;9.22;100.00;99436.12;1853860;75;936569;-77
2020/12/12 04:49:46;;;;;;;25.97;12.33;;;;;;;9.26;100.00;99432.98;1845538;76;936824;-77
2020/12/12 04:52:20;;;;;;;22.87;12.55;;;;;;;9.21;100.00;99442.22;1853554;75;936631;-77
2020/12/12 04:54:50;;;;;;;20.37;10.60;;;;;;;9.24;100.00;99450.49;1866166;75;934670;-77
2020/12/12 04:57:20;;;;;;;20.95;11.00;;;;;;;9.16;100.00;99449.84;1832399;77;936610;-77
2020/12/12 04:59:53;;;;;;;20.60;10.50;;;;;;;9.23;100.00;99453.83;1866009;75;934676;-77
2020/12/12 05:02:23;;;;;;;20.03;11.23;;;;;;;9.18;100.00;99460.03;1819741;76;936726;-77
2020/12/12 05:04:53;;;;;;;24.80;11.43;;;;;;;9.17;100.00;99463.36;1866190;76;934647;-76
2020/12/12 05:07:23;;;;;;;17.23;10.17;;;;;;;9.16;100.00;99460.92;1831924;76;936751;-77
2020/12/12 05:09:53;;;;;;;18.70;10.73;;;;;;;9.18;100.00;99469.17;1865327;75;934694;-77
2020/12/12 05:12:23;;;;;;;20.60;10.27;;;;;;;9.14;100.00;99472.30;1833228;77;936634;-77
2020/12/12 05:14:54;;;;;;;23.97;9.33;;;;;;;9.13;100.00;99477.02;1865928;75;934709;-77
2020/12/12 05:17:26;;;;;;;19.20;10.80;;;;;;;9.13;100.00;99485.89;1833380;76;934751;-77
2020/12/12 05:19:58;;;;;;;20.67;10.13;;;;;;;9.08;100.00;99491.52;1866264;75;934753;-77
2020/12/12 05:22:34;;;;;;;18.90;9.23;;;;;;;9.04;100.00;99487.73;1866220;76;936531;-77
2020/12/12 05:25:06;;;;;;;18.23;9.27;;;;;;;9.07;100.00;99487.94;1833411;76;934674;-77
2020/12/12 05:27:39;;;;;;;17.63;9.13;;;;;;;9.12;100.00;99492.55;1866112;76;934551;-77
2020/12/12 05:30:11;;;;;;;18.53;9.80;;;;;;;9.14;100.00;99498.62;1854012;75;934589;-77
2020/12/12 05:32:45;;;;;;;20.27;8.70;;;;;;;9.17;100.00;99501.32;1845536;76;935049;-77
2020/12/12 05:35:17;;;;;;;18.85;8.88;;;;;;;9.19;100.00;99511.55;1854108;75;934512;-77
2020/12/12 05:37:48;;;;;;;16.70;9.77;;;;;;;9.25;100.00;99514.45;1866696;75;934531;-77
2020/12/12 05:40:20;;;;;;;14.47;8.57;;;;;;;9.27;100.00;99516.36;1854991;76;934598;-77
2020/12/12 05:42:52;;;;;;;17.30;9.73;;;;;;;9.25;100.00;99519.98;1866376;75;932924;-77
2020/12/12 05:45:23;;;;;;;16.93;10.03;;;;;;;9.23;100.00;99532.78;1853572;76;934547;-77
2020/12/12 05:47:55;;;;;;;18.03;9.43;;;;;;;9.24;100.00;99536.37;1845523;76;934650;-77
2020/12/12 05:50:26;;;;;;;14.13;8.33;;;;;;;9.25;100.00;99537.99;1853611;75;934644;-77
2020/12/12 05:52:57;;;;;;;15.83;9.07;;;;;;;9.24;100.00;99535.78;1845702;76;932532;-77
2020/12/12 05:55:29;;;;;;;15.40;8.47;;;;;;;9.23;100.00;99538.88;1853786;76;934558;-77
2020/12/12 05:58:00;;;;;;;13.53;7.40;;;;;;;9.23;100.00;99544.42;1865774;76;932918;-77
2020/12/12 06:00:32;;;;;;;17.57;8.07;;;;;;;9.25;100.00;99540.77;1845569;77;934471;-77
2020/12/12 06:03:05;;;;;;;16.17;8.63;;;;;;;9.24;100.00;99544.09;1866050;75;932682;-77
2020/12/12 06:05:35;;;;;;;14.17;7.23;;;;;;;9.27;100.00;99542.67;1845493;77;934633;-77
2020/12/12 06:08:06;;;;;;;15.53;7.83;;;;;;;9.27;100.00;99548.22;1853906;76;934537;-77
2020/12/12 06:10:36;;;;;;;13.47;6.93;;;;;;;9.31;100.00;99549.23;1845632;76;934491;-77
2020/12/12 06:13:07;;;;;;;14.00;7.27;;;;;;;9.30;100.00;99555.34;1853814;76;934612;-77
2020/12/12 06:15:38;;;;;;;12.50;6.70;;;;;;;9.35;100.00;99559.97;1866254;75;934566;-77
2020/12/12 06:18:33;;;;;;;17.40;7.62;;;;;;;9.33;100.00;99558.05;1854042;75;934484;-77
2020/12/12 06:21:07;;;;;;;13.37;7.07;;;;;;;9.28;100.00;99570.65;1853788;75;934776;-77
2020/12/12 06:23:39;;;;;;;12.93;6.17;;;;;;;9.22;100.00;99565.77;1875531;75;934502;-77
2020/12/12 06:26:10;;;;;;;12.13;6.22;;;;;;;9.32;100.00;99579.98;1833112;76;934528;-77
2020/12/12 06:28:43;;;;;;;13.60;6.20;;;;;;;9.32;100.00;99590.50;1866154;75;934725;-76
2020/12/12 06:31:24;;;;;;;12.63;7.28;;;;;;;9.33;100.00;99592.69;1828717;77;933778;-76
2020/12/12 06:33:56;;;;;;;13.70;6.27;;;;;;;9.31;100.00;99598.55;1854761;75;931488;-76
2020/12/12 06:36:28;;;;;;;9.28;6.00;;;;;;;9.30;100.00;99596.91;1833307;75;933828;-77
2020/12/12 06:39:16;;;;;;;12.83;6.20;;;;;;;9.36;100.00;99605.95;1866259;75;930045;-76
2020/12/12 06:41:46;;;;;;;9.13;5.70;;;;;;;9.38;100.00;99614.20;1866188;75;933535;-76
2020/12/12 06:44:33;;;;;;;11.17;6.13;;;;;;;9.30;100.00;99624.61;1833431;77;931597;-75
2020/12/12 06:47:04;;;;;;;9.23;6.03;;;;;;;9.30;100.00;99624.61;1863708;76;933602;-76
2020/12/12 06:49:35;;;;;;;8.37;5.40;;;;;;;9.32;100.00;99625.14;1874958;75;931771;-75
2020/12/12 06:52:05;;;;;;;11.83;5.63;;;;;;;9.38;100.00;99625.84;1875404;75;931577;-77
2020/12/12 06:54:35;;;;;;;12.53;5.53;;;;;;;9.35;100.00;99632.00;1887670;75;933470;-77
2020/12/12 06:57:06;;;;;;;10.80;5.67;;;;;;;9.28;100.00;99626.89;1833377;76;933521;-77
2020/12/12 06:59:36;;;;;;;9.63;5.63;;;;;;;9.26;100.00;99636.61;1866031;76;933715;-78
2020/12/12 07:02:07;;;;;;;10.53;5.30;;;;;;;9.30;100.00;99644.56;1853561;75;931535;-78
2020/12/12 07:04:38;;;;;;;11.33;5.77;;;;;;;9.35;100.00;99645.86;1866185;75;934183;-78
2020/12/12 07:07:12;;;;;;;12.40;6.20;;;;;;;9.37;100.00;99649.95;1853921;75;933521;-78
2020/12/12 07:09:42;;;;;;;9.90;5.40;;;;;;;9.31;100.00;99646.22;1845625;76;933423;-78
2020/12/12 07:12:12;;;;;;;9.95;5.17;;;;;;;9.33;100.00;99656.42;1853919;75;935423;-76
2020/12/12 07:14:42;;;;;;;10.63;5.55;;;;;;;9.36;100.00;99664.97;1866974;75;931586;-77
2020/12/12 07:17:12;;;;;;;10.43;5.08;;;;;;;9.39;100.00;99664.34;1853969;75;933719;-76
2020/12/12 07:19:42;;;;;;;6.97;4.80;;;;;;;9.38;100.00;99677.94;1865917;75;933772;-77
2020/12/12 07:22:13;;;;;;;8.65;5.28;;;;;;;9.40;100.00;99682.63;1853822;76;933494;-76
2020/12/12 07:24:43;;;;;;;9.53;5.20;;;;;;;9.44;100.00;99680.87;1845615;77;931683;-75
2020/12/12 07:27:12;;;;;;;8.45;4.22;;;;;;;9.43;100.00;99686.72;1853790;75;931271;-74
2020/12/12 07:29:43;;;;;;;9.23;4.83;;;;;;;9.44;100.00;99685.04;1845536;77;931407;-77
2020/12/12 07:32:13;;;;;;;7.30;4.47;;;;;;;9.45;100.00;99688.08;1853854;75;932350;-76
2020/12/12 07:34:43;;;;;;;8.27;4.40;;;;;;;9.49;100.00;99691.05;1866589;75;932415;-78
2020/12/12 07:37:14;;;;;;;8.58;4.70;;;;;;;9.46;100.00;99693.03;1854320;75;932471;-75
2020/12/12 07:39:44;;;;;;;9.37;4.83;;;;;;;9.46;100.00;99704.11;1845632;76;932618;-75
2020/12/12 07:42:14;;;;;;;9.07;4.27;;;;;;;9.46;100.00;99699.95;1854135;75;932502;-75
2020/12/12 07:44:53;;;;;;;7.80;4.20;;;;;;;9.50;100.00;99710.69;1845602;76;932659;-75
2020/12/12 07:47:23;;;;;;;7.67;4.27;;;;;;;9.50;100.00;99719.00;1833489;76;932556;-76
2020/12/12 07:50:01;;;;;;;6.80;3.90;;;;;;;9.54;100.00;99726.41;1866777;75;930512;-75
2020/12/12 07:52:31;;;;;;;8.00;4.03;;;;;;;9.54;100.00;99731.95;1866206;76;932526;-75
2020/12/12 07:55:05;;;;;;;8.67;4.07;;;;;;;9.51;100.00;99743.66;1845521;77;930594;-75
2020/12/12 07:57:37;;;;;;;8.37;4.40;;;;;;;9.53;100.00;99744.75;1866370;75;932414;-75
2020/12/12 08:00:13;;;;;;;8.87;3.93;;;;;;;9.51;100.00;99753.92;1833253;76;932363;-76
2020/12/12 08:02:44;;;;;;;7.00;3.87;;;;;;;9.52;100.00;99752.80;1866236;76;932445;-75
2020/12/12 08:05:14;;;;;;;5.97;3.63;;;;;;;9.55;100.00;99757.72;1833659;76;932462;-75
2020/12/12 08:07:44;;;;;;;6.60;4.23;;;;;;;9.56;100.00;99762.97;1866407;75;932389;-75
2020/12/12 08:10:14;;;;;;;4.87;3.67;;;;;;;9.58;100.00;99765.45;1854092;75;932348;-75
2020/12/12 08:12:45;;;;;;;7.50;4.40;;;;;;;9.55;100.00;99769.64;1845622;76;932643;-75
2020/12/12 08:15:19;;;;;;;6.95;4.62;;;;;;;9.56;100.00;99771.29;1853974;75;932589;-76
2020/12/12 08:17:48;;;;;;;5.70;3.77;;;;;;;9.55;100.00;99772.97;1865964;76;930494;-74
2020/12/12 08:20:24;;;;;;;8.20;3.50;;;;;;;9.59;100.00;99775.38;1831593;77;932514;-74
2020/12/12 08:22:53;;;;;;;6.53;3.47;;;;;;;9.54;100.00;99778.27;1866187;75;930539;-75
2020/12/12 08:25:22;;;;;;;5.20;3.20;;;;;;;9.48;100.00;99777.53;1833245;76;932468;-74
2020/12/12 08:27:53;;;;;;;4.47;3.30;;;;;;;9.40;100.00;99780.18;1865436;76;930450;-75
2020/12/12 08:30:25;;;;;;;4.57;3.33;;;;;;;9.36;100.00;99784.69;1853992;75;932442;-74
2020/12/12 08:32:57;;;;;;;4.60;3.63;;;;;;;9.33;100.00;99793.02;1845532;76;930486;-72
2020/12/12 08:35:29;;;;;;;4.67;3.53;;;;;;;9.37;100.00;99803.76;1853578;75;932777;-76
2020/12/12 08:38:03;;;;;;;4.80;3.13;;;;;;;9.39;100.00;99811.22;1866500;75;930426;-75
2020/12/12 08:40:37;;;;;;;3.70;3.27;;;;;;;9.46;100.00;99814.98;1845543;76;932572;-75
2020/12/12 08:43:09;;;;;;;4.57;2.90;;;;;;;9.51;100.00;99820.44;1854055;75;932476;-75
2020/12/12 08:45:41;;;;;;;5.30;3.20;;;;;;;9.59;100.00;99819.74;1845825;76;932482;-74
2020/12/12 08:48:14;;;;;;;3.27;2.58;;;;;;;9.68;100.00;99822.08;1853892;75;932505;-74
2020/12/12 08:50:52;;;;;;;3.70;2.70;;;;;;;9.70;100.00;99825.95;1844471;77;931558;-73
2020/12/12 08:53:31;;;;;;;4.17;2.40;;;;;;;9.74;100.00;99827.81;1853944;75;932357;-73
2020/12/12 08:56:04;;;;;;;6.80;2.40;;;;;;;9.76;100.00;99833.03;1865832;75;930640;-74
2020/12/12 08:58:54;;;;;;;3.20;2.37;;;;;;;9.80;100.00;99836.28;1866290;75;932422;-72
2020/12/12 09:01:34;;;;;;;2.80;2.10;;;;;;;9.91;100.00;99846.08;1853148;76;932932;-74
2020/12/12 09:04:22;;;;;;;2.70;2.07;;;;;;;9.96;100.00;99851.54;1853224;75;932362;-73
2020/12/12 09:06:55;;;;;;;4.37;2.10;;;;;;;9.95;100.00;99854.61;1845237;76;930568;-73
2020/12/12 09:09:26;;;;;;;2.97;2.43;;;;;;;9.96;100.00;99865.97;1853712;75;932408;-73
2020/12/12 09:11:58;;;;;;;3.37;1.73;;;;;;;9.98;100.00;99863.13;1866065;76;930534;-73
2020/12/12 09:14:30;;;;;;;4.08;1.77;;;;;;;10.01;100.00;99862.52;1865666;76;932442;-74
2020/12/12 09:17:01;;;;;;;4.47;1.60;;;;;;;10.04;100.00;99873.58;1865751;76;932892;-74
2020/12/12 09:19:31;;;;;;;3.83;1.57;;;;;;;10.02;100.00;99876.66;1845163;76;934442;-74
2020/12/12 09:22:01;;;;;;;1.47;1.20;;;;;;;10.03;100.00;99879.69;1865920;76;932674;-74
2020/12/12 09:24:31;;;;;;;2.63;1.10;;;;;;;10.01;100.00;99880.55;1845568;76;934459;-74
2020/12/12 09:27:01;;;;;;;2.00;1.13;;;;;;;10.05;100.00;99883.56;1865796;75;932724;-74
2020/12/12 09:29:31;;;;;;;1.73;1.20;;;;;;;10.05;100.00;99887.72;1845295;76;934756;-74
2020/12/12 09:32:01;;;;;;;1.97;1.23;;;;;;;10.10;100.00;99886.22;1866016;75;932551;-74
2020/12/12 09:34:30;;;;;;;2.47;1.60;;;;;;;10.12;100.00;99896.45;1845350;76;934716;-74
2020/12/12 09:37:00;;;;;;;2.57;1.10;;;;;;;10.12;100.00;99906.17;1865845;76;932614;-74
2020/12/12 09:39:30;;;;;;;1.00;0.90;;;;;;;10.14;100.00;99901.72;1845036;76;934762;-73
2020/12/12 09:42:00;;;;;;;3.93;1.17;;;;;;;10.18;100.00;99912.49;1866176;75;932742;-74
2020/12/12 09:44:30;;;;;;;2.77;1.37;;;;;;;10.24;100.00;99916.23;1865638;76;934532;-74
2020/12/12 09:47:00;;;;;;;2.30;1.20;;;;;;;10.27;100.00;99917.59;1845346;76;932594;-73
2020/12/12 09:49:30;;;;;;;1.67;0.97;;;;;;;10.31;100.00;99924.19;1866058;75;934515;-74
2020/12/12 09:52:00;;;;;;;2.77;1.10;;;;;;;10.39;100.00;99931.23;1865962;76;932684;-74
2020/12/12 09:54:30;;;;;;;3.20;1.10;;;;;;;10.43;100.00;99932.83;1865927;76;934664;-74
2020/12/12 09:57:00;;;;;;;1.63;0.97;;;;;;;10.41;100.00;99940.06;1845040;76;932668;-72
2020/12/12 09:59:29;;;;;;;1.63;1.17;;;;;;;10.41;100.00;99946.18;1865871;75;934535;-73
2020/12/12 10:01:59;;;;;;;2.83;0.90;;;;;;;10.42;100.00;99958.38;1865408;76;932526;-73
2020/12/12 10:04:29;;;;;;;3.67;1.03;;;;;;;10.43;100.00;99957.81;1865929;76;934444;-73
2020/12/12 10:06:59;;;;;;;1.83;1.00;;;;;;;10.41;100.00;99955.34;1844253;76;932732;-74
2020/12/12 10:09:29;;;;;;;2.63;1.00;;;;;;;10.42;100.00;99962.55;1866262;75;934521;-74
2020/12/12 10:11:59;;;;;;;2.77;0.80;;;;;;;10.46;100.00;99966.35;1866201;75;932497;-74
2020/12/12 10:14:28;;;;;;;1.90;0.90;;;;;;;10.47;100.00;99958.84;1865733;75;934505;-73
2020/12/12 10:16:58;;;;;;;2.03;0.80;;;;;;;10.43;100.00;99964.76;1865909;75;932598;-72
2020/12/12 10:19:28;;;;;;;4.63;1.00;;;;;;;10.43;100.00;99966.14;1845465;76;934507;-74
2020/12/12 10:21:58;;;;;;;2.53;0.93;;;;;;;10.43;100.00;99966.97;1866723;75;932510;-73
2020/12/12 10:24:28;;;;;;;3.00;0.97;;;;;;;10.45;100.00;99977.19;1845464;76;934723;-74
2020/12/12 10:27:00;;;;;;;1.60;1.03;;;;;;;10.41;100.00;99973.94;1865696;76;932592;-74
2020/12/12 10:29:30;;;;;;;1.60;0.97;;;;;;;10.38;100.00;99978.72;1865757;75;934578;-75
2020/12/12 10:32:01;;;;;;;3.17;1.00;;;;;;;10.32;100.00;99971.61;1845726;76;933100;-76
2020/12/12 10:34:31;;;;;;;2.43;0.90;;;;;;;10.31;100.00;99975.53;1866350;76;934590;-72
2020/12/12 10:37:01;;;;;;;1.97;0.97;;;;;;;10.27;100.00;99977.27;1845464;75;932807;-73
2020/12/12 10:39:33;;;;;;;2.87;1.03;;;;;;;10.23;100.00;99985.91;1865986;75;934708;-74
2020/12/12 10:42:03;;;;;;;3.15;1.10;;;;;;;10.22;100.00;99992.06;1865117;75;934574;-74
2020/12/12 10:44:33;;;;;;;1.67;0.77;;;;;;;10.27;100.00;99988.38;1865710;76;934552;-73
2020/12/12 10:47:03;;;;;;;4.97;1.40;;;;;;;10.24;100.00;99987.02;1833369;76;934598;-74
2020/12/12 10:49:33;;;;;;;4.53;1.57;;;;;;;10.24;100.00;99993.95;1845141;76;934680;-74
2020/12/12 10:52:03;;;;;;;2.42;1.00;;;;;;;10.24;100.00;99989.78;1857377;75;934553;-74
2020/12/12 10:54:33;;;;;;;2.57;1.07;;;;;;;10.16;100.00;99979.95;1853943;75;934605;-75
2020/12/12 10:57:03;;;;;;;3.57;1.20;;;;;;;10.27;100.00;99999.47;1834870;76;934511;-75
2020/12/12 10:59:33;;;;;;;3.47;1.30;;;;;;;10.28;100.00;100006.09;1853885;76;934744;-74
2020/12/12 11:02:03;;;;;;;3.67;1.30;;;;;;;10.32;100.00;100015.45;1835105;76;935729;-74
2020/12/12 11:04:33;;;;;;;5.13;1.17;;;;;;;10.34;100.00;100009.61;1859831;75;936663;-74
2020/12/12 11:07:03;;;;;;;2.50;0.93;;;;;;;10.37;100.00;100009.81;1835045;76;936693;-74
2020/12/12 11:09:35;;;;;;;4.53;1.47;;;;;;;10.36;100.00;100004.56;1853815;76;936798;-73
2020/12/12 11:12:05;;;;;;;2.73;1.10;;;;;;;10.40;100.00;100013.37;1853637;76;936482;-73
2020/12/12 11:14:35;;;;;;;6.87;1.10;;;;;;;10.38;100.00;100014.25;1845488;76;936665;-73
2020/12/12 11:17:05;;;;;;;5.95;1.20;;;;;;;10.42;100.00;100016.67;1853541;75;936757;-73
2020/12/12 11:19:35;;;;;;;3.83;1.40;;;;;;;10.48;100.00;100016.03;1845353;77;936648;-74
2020/12/12 11:22:05;;;;;;;4.07;1.10;;;;;;;10.52;100.00;100017.63;1853823;75;936696;-72
2020/12/12 11:24:35;;;;;;;2.83;1.23;;;;;;;10.57;100.00;100023.09;1866286;75;936621;-72
2020/12/12 11:27:04;;;;;;;4.30;1.30;;;;;;;10.57;100.00;100018.34;1833216;76;936695;-74
2020/12/12 11:29:35;;;;;;;1.97;1.30;;;;;;;10.56;100.00;100024.22;1865713;75;936692;-75
2020/12/12 11:32:09;;;;;;;4.23;1.00;;;;;;;10.54;100.00;100027.28;1833515;76;936568;-73